sensor_id;sensor_type;location;lat;lon;timestamp;P1;durP1;ratioP1;P2;durP2;ratioP2
18883;SDS011;9574;47.282;9.640;2023-07-13T00:02:05;4.40;;;2.10;;
18883;SDS011;9574;47.282;9.640;2023-07-13T00:04:32;2.95;;;2.05;;
18883;SDS011;9574;47.282;9.640;2023-07-13T00:06:59;4.63;;;2.17;;
18883;SDS011;9574;47.282;9.640;2023-07-13T00:09:27;5.72;;;2.47;;
18883;SDS011;9574;47.282;9.640;2023-07-13T00:11:55;2.17;;;1.85;;
18883;SDS011;9574;47.282;9.640;2023-07-13T00:14:23;4.13;;;2.20;;
18883;SDS011;9574;47.282;9.640;2023-07-13T00:16:51;3.50;;;2.30;;
18883;SDS011;9574;47.282;9.640;2023-07-13T00:19:18;3.25;;;1.80;;
18883;SDS011;9574;47.282;9.640;2023-07-13T00:21:45;4.20;;;2.05;;
18883;SDS011;9574;47.282;9.640;2023-07-13T00:24:13;4.13;;;2.00;;
18883;SDS011;9574;47.282;9.640;2023-07-13T00:26:45;3.15;;;1.70;;
18883;SDS011;9574;47.282;9.640;2023-07-13T00:29:11;3.78;;;2.10;;
18883;SDS011;9574;47.282;9.640;2023-07-13T00:31:38;5.88;;;2.22;;
18883;SDS011;9574;47.282;9.640;2023-07-13T00:34:06;3.13;;;2.00;;
18883;SDS011;9574;47.282;9.640;2023-07-13T00:36:33;2.72;;;1.70;;
18883;SDS011;9574;47.282;9.640;2023-07-13T00:39:00;2.72;;;1.98;;
18883;SDS011;9574;47.282;9.640;2023-07-13T00:41:29;3.35;;;1.85;;
18883;SDS011;9574;47.282;9.640;2023-07-13T00:43:57;3.63;;;1.60;;
18883;SDS011;9574;47.282;9.640;2023-07-13T00:46:25;2.90;;;1.95;;
18883;SDS011;9574;47.282;9.640;2023-07-13T00:48:54;3.10;;;1.73;;
18883;SDS011;9574;47.282;9.640;2023-07-13T00:51:25;3.35;;;2.47;;
18883;SDS011;9574;47.282;9.640;2023-07-13T00:53:56;3.10;;;1.83;;
18883;SDS011;9574;47.282;9.640;2023-07-13T00:56:26;3.95;;;2.05;;
18883;SDS011;9574;47.282;9.640;2023-07-13T00:58:54;4.00;;;1.80;;
18883;SDS011;9574;47.282;9.640;2023-07-13T01:01:23;2.25;;;1.85;;
18883;SDS011;9574;47.282;9.640;2023-07-13T01:03:50;3.03;;;1.92;;
18883;SDS011;9574;47.282;9.640;2023-07-13T01:06:19;2.47;;;1.88;;
18883;SDS011;9574;47.282;9.640;2023-07-13T01:08:46;2.42;;;1.63;;
18883;SDS011;9574;47.282;9.640;2023-07-13T01:11:13;2.88;;;2.15;;
18883;SDS011;9574;47.282;9.640;2023-07-13T01:13:45;3.55;;;2.08;;
18883;SDS011;9574;47.282;9.640;2023-07-13T01:16:13;2.10;;;1.63;;
18883;SDS011;9574;47.282;9.640;2023-07-13T01:18:47;2.38;;;1.70;;
18883;SDS011;9574;47.282;9.640;2023-07-13T01:21:15;2.70;;;1.52;;
18883;SDS011;9574;47.282;9.640;2023-07-13T01:23:44;2.80;;;1.75;;
18883;SDS011;9574;47.282;9.640;2023-07-13T01:26:11;2.97;;;1.77;;
18883;SDS011;9574;47.282;9.640;2023-07-13T01:28:38;3.75;;;1.88;;
18883;SDS011;9574;47.282;9.640;2023-07-13T01:31:05;3.10;;;1.73;;
18883;SDS011;9574;47.282;9.640;2023-07-13T01:33:33;2.00;;;1.70;;
18883;SDS011;9574;47.282;9.640;2023-07-13T01:36:00;3.33;;;2.08;;
18883;SDS011;9574;47.282;9.640;2023-07-13T01:38:29;2.00;;;1.58;;
18883;SDS011;9574;47.282;9.640;2023-07-13T01:40:55;10.15;;;2.03;;
18883;SDS011;9574;47.282;9.640;2023-07-13T01:43:22;2.40;;;1.80;;
18883;SDS011;9574;47.282;9.640;2023-07-13T01:45:49;3.28;;;1.95;;
18883;SDS011;9574;47.282;9.640;2023-07-13T01:48:16;1.60;;;1.40;;
18883;SDS011;9574;47.282;9.640;2023-07-13T01:50:45;3.13;;;2.03;;
18883;SDS011;9574;47.282;9.640;2023-07-13T01:53:13;2.55;;;1.70;;
18883;SDS011;9574;47.282;9.640;2023-07-13T01:55:42;2.33;;;1.58;;
18883;SDS011;9574;47.282;9.640;2023-07-13T01:58:09;2.50;;;1.90;;
18883;SDS011;9574;47.282;9.640;2023-07-13T02:00:35;2.95;;;2.08;;
18883;SDS011;9574;47.282;9.640;2023-07-13T02:03:02;2.97;;;2.08;;
18883;SDS011;9574;47.282;9.640;2023-07-13T02:05:29;2.83;;;1.75;;
18883;SDS011;9574;47.282;9.640;2023-07-13T02:07:56;2.63;;;1.67;;
18883;SDS011;9574;47.282;9.640;2023-07-13T02:10:24;5.07;;;1.95;;
18883;SDS011;9574;47.282;9.640;2023-07-13T02:12:52;2.42;;;1.60;;
18883;SDS011;9574;47.282;9.640;2023-07-13T02:15:19;2.30;;;1.60;;
18883;SDS011;9574;47.282;9.640;2023-07-13T02:17:46;2.70;;;1.70;;
18883;SDS011;9574;47.282;9.640;2023-07-13T02:20:13;2.78;;;1.65;;
18883;SDS011;9574;47.282;9.640;2023-07-13T02:22:40;3.55;;;1.70;;
18883;SDS011;9574;47.282;9.640;2023-07-13T02:25:07;4.90;;;1.58;;
18883;SDS011;9574;47.282;9.640;2023-07-13T02:27:34;2.47;;;1.80;;
18883;SDS011;9574;47.282;9.640;2023-07-13T02:30:03;2.65;;;2.05;;
18883;SDS011;9574;47.282;9.640;2023-07-13T02:32:31;3.92;;;2.00;;
18883;SDS011;9574;47.282;9.640;2023-07-13T02:34:58;2.97;;;1.90;;
18883;SDS011;9574;47.282;9.640;2023-07-13T02:37:25;2.45;;;1.90;;
18883;SDS011;9574;47.282;9.640;2023-07-13T02:39:52;2.20;;;1.70;;
18883;SDS011;9574;47.282;9.640;2023-07-13T02:42:19;2.72;;;1.90;;
18883;SDS011;9574;47.282;9.640;2023-07-13T02:44:46;3.20;;;2.03;;
18883;SDS011;9574;47.282;9.640;2023-07-13T02:47:16;2.85;;;1.75;;
18883;SDS011;9574;47.282;9.640;2023-07-13T02:49:43;3.65;;;2.08;;
18883;SDS011;9574;47.282;9.640;2023-07-13T02:52:10;6.45;;;1.98;;
18883;SDS011;9574;47.282;9.640;2023-07-13T02:54:37;4.25;;;1.98;;
18883;SDS011;9574;47.282;9.640;2023-07-13T02:57:04;2.67;;;1.70;;
18883;SDS011;9574;47.282;9.640;2023-07-13T02:59:31;5.05;;;1.60;;
18883;SDS011;9574;47.282;9.640;2023-07-13T03:01:58;3.78;;;1.77;;
18883;SDS011;9574;47.282;9.640;2023-07-13T03:04:28;4.22;;;2.10;;
18883;SDS011;9574;47.282;9.640;2023-07-13T03:06:55;3.92;;;1.95;;
18883;SDS011;9574;47.282;9.640;2023-07-13T03:09:23;3.17;;;2.07;;
18883;SDS011;9574;47.282;9.640;2023-07-13T03:11:52;3.03;;;2.05;;
18883;SDS011;9574;47.282;9.640;2023-07-13T03:14:20;2.85;;;2.08;;
18883;SDS011;9574;47.282;9.640;2023-07-13T03:16:48;2.50;;;1.75;;
18883;SDS011;9574;47.282;9.640;2023-07-13T03:19:15;3.03;;;1.90;;
18883;SDS011;9574;47.282;9.640;2023-07-13T03:21:43;3.55;;;1.85;;
18883;SDS011;9574;47.282;9.640;2023-07-13T03:24:11;2.20;;;1.63;;
18883;SDS011;9574;47.282;9.640;2023-07-13T03:26:38;2.50;;;1.58;;
18883;SDS011;9574;47.282;9.640;2023-07-13T03:29:04;2.20;;;1.50;;
18883;SDS011;9574;47.282;9.640;2023-07-13T03:31:33;2.55;;;1.60;;
18883;SDS011;9574;47.282;9.640;2023-07-13T03:34:01;3.00;;;2.10;;
18883;SDS011;9574;47.282;9.640;2023-07-13T03:36:29;2.30;;;1.80;;
18883;SDS011;9574;47.282;9.640;2023-07-13T03:39:00;2.63;;;1.88;;
18883;SDS011;9574;47.282;9.640;2023-07-13T03:41:29;1.60;;;1.40;;
18883;SDS011;9574;47.282;9.640;2023-07-13T03:43:56;2.45;;;1.90;;
18883;SDS011;9574;47.282;9.640;2023-07-13T03:46:23;1.65;;;1.38;;
18883;SDS011;9574;47.282;9.640;2023-07-13T03:48:50;2.75;;;1.67;;
18883;SDS011;9574;47.282;9.640;2023-07-13T03:51:18;2.95;;;1.98;;
18883;SDS011;9574;47.282;9.640;2023-07-13T03:53:46;4.77;;;1.57;;
18883;SDS011;9574;47.282;9.640;2023-07-13T03:56:15;3.78;;;1.90;;
18883;SDS011;9574;47.282;9.640;2023-07-13T03:58:44;2.17;;;1.75;;
18883;SDS011;9574;47.282;9.640;2023-07-13T04:01:13;2.58;;;1.95;;
18883;SDS011;9574;47.282;9.640;2023-07-13T04:03:42;2.00;;;1.40;;
18883;SDS011;9574;47.282;9.640;2023-07-13T04:06:12;3.97;;;1.70;;
18883;SDS011;9574;47.282;9.640;2023-07-13T04:08:46;2.05;;;1.63;;
18883;SDS011;9574;47.282;9.640;2023-07-13T04:11:16;2.92;;;1.63;;
18883;SDS011;9574;47.282;9.640;2023-07-13T04:13:44;2.92;;;1.65;;
18883;SDS011;9574;47.282;9.640;2023-07-13T04:16:11;2.22;;;1.85;;
18883;SDS011;9574;47.282;9.640;2023-07-13T04:18:38;2.50;;;1.52;;
18883;SDS011;9574;47.282;9.640;2023-07-13T04:21:06;1.83;;;1.50;;
18883;SDS011;9574;47.282;9.640;2023-07-13T04:23:34;4.18;;;1.40;;
18883;SDS011;9574;47.282;9.640;2023-07-13T04:26:01;2.92;;;1.80;;
18883;SDS011;9574;47.282;9.640;2023-07-13T04:28:29;3.08;;;1.80;;
18883;SDS011;9574;47.282;9.640;2023-07-13T04:30:56;2.55;;;1.75;;
18883;SDS011;9574;47.282;9.640;2023-07-13T04:33:24;3.47;;;2.30;;
18883;SDS011;9574;47.282;9.640;2023-07-13T04:35:53;3.92;;;2.53;;
18883;SDS011;9574;47.282;9.640;2023-07-13T04:38:22;4.80;;;2.38;;
18883;SDS011;9574;47.282;9.640;2023-07-13T04:40:51;4.05;;;2.28;;
18883;SDS011;9574;47.282;9.640;2023-07-13T04:43:18;4.03;;;2.22;;
18883;SDS011;9574;47.282;9.640;2023-07-13T04:45:46;6.65;;;2.60;;
18883;SDS011;9574;47.282;9.640;2023-07-13T04:48:13;2.40;;;2.10;;
18883;SDS011;9574;47.282;9.640;2023-07-13T04:50:40;2.10;;;1.83;;
18883;SDS011;9574;47.282;9.640;2023-07-13T04:53:08;4.13;;;2.60;;
18883;SDS011;9574;47.282;9.640;2023-07-13T04:55:35;3.50;;;2.00;;
18883;SDS011;9574;47.282;9.640;2023-07-13T04:58:02;5.53;;;2.25;;
18883;SDS011;9574;47.282;9.640;2023-07-13T05:00:30;1.92;;;1.60;;
18883;SDS011;9574;47.282;9.640;2023-07-13T05:02:58;2.22;;;1.75;;
18883;SDS011;9574;47.282;9.640;2023-07-13T05:05:26;4.88;;;2.15;;
18883;SDS011;9574;47.282;9.640;2023-07-13T05:07:53;3.78;;;1.90;;
18883;SDS011;9574;47.282;9.640;2023-07-13T05:10:20;7.70;;;1.95;;
18883;SDS011;9574;47.282;9.640;2023-07-13T05:12:48;1.60;;;1.45;;
18883;SDS011;9574;47.282;9.640;2023-07-13T05:15:15;2.03;;;1.52;;
18883;SDS011;9574;47.282;9.640;2023-07-13T05:17:46;3.47;;;1.60;;
18883;SDS011;9574;47.282;9.640;2023-07-13T05:20:14;2.47;;;1.50;;
18883;SDS011;9574;47.282;9.640;2023-07-13T05:22:42;2.70;;;1.70;;
18883;SDS011;9574;47.282;9.640;2023-07-13T05:25:11;6.45;;;1.92;;
18883;SDS011;9574;47.282;9.640;2023-07-13T05:27:39;2.05;;;1.60;;
18883;SDS011;9574;47.282;9.640;2023-07-13T05:30:06;1.42;;;1.33;;
18883;SDS011;9574;47.282;9.640;2023-07-13T05:32:36;4.07;;;1.73;;
18883;SDS011;9574;47.282;9.640;2023-07-13T05:35:03;3.65;;;2.03;;
18883;SDS011;9574;47.282;9.640;2023-07-13T05:37:32;1.85;;;1.50;;
18883;SDS011;9574;47.282;9.640;2023-07-13T05:39:59;5.35;;;1.75;;
18883;SDS011;9574;47.282;9.640;2023-07-13T05:42:26;3.33;;;1.58;;
18883;SDS011;9574;47.282;9.640;2023-07-13T05:44:53;2.25;;;1.60;;
18883;SDS011;9574;47.282;9.640;2023-07-13T05:47:20;3.40;;;1.95;;
18883;SDS011;9574;47.282;9.640;2023-07-13T05:49:47;2.47;;;2.00;;
18883;SDS011;9574;47.282;9.640;2023-07-13T05:52:14;3.60;;;1.85;;
18883;SDS011;9574;47.282;9.640;2023-07-13T05:54:43;5.38;;;1.88;;
18883;SDS011;9574;47.282;9.640;2023-07-13T05:57:10;2.22;;;1.58;;
18883;SDS011;9574;47.282;9.640;2023-07-13T05:59:37;3.33;;;1.67;;
18883;SDS011;9574;47.282;9.640;2023-07-13T06:02:04;2.78;;;1.75;;
18883;SDS011;9574;47.282;9.640;2023-07-13T06:04:32;3.45;;;1.80;;
18883;SDS011;9574;47.282;9.640;2023-07-13T06:06:59;2.72;;;1.75;;
18883;SDS011;9574;47.282;9.640;2023-07-13T06:09:26;3.17;;;1.80;;
18883;SDS011;9574;47.282;9.640;2023-07-13T06:11:54;3.53;;;1.65;;
18883;SDS011;9574;47.282;9.640;2023-07-13T06:14:21;1.83;;;1.30;;
18883;SDS011;9574;47.282;9.640;2023-07-13T06:16:48;3.13;;;1.80;;
18883;SDS011;9574;47.282;9.640;2023-07-13T06:19:15;1.77;;;1.52;;
18883;SDS011;9574;47.282;9.640;2023-07-13T06:21:42;3.92;;;1.48;;
18883;SDS011;9574;47.282;9.640;2023-07-13T06:24:10;2.70;;;1.60;;
18883;SDS011;9574;47.282;9.640;2023-07-13T06:26:37;2.83;;;1.92;;
18883;SDS011;9574;47.282;9.640;2023-07-13T06:29:05;3.15;;;1.80;;
18883;SDS011;9574;47.282;9.640;2023-07-13T06:31:32;3.05;;;1.45;;
18883;SDS011;9574;47.282;9.640;2023-07-13T06:33:59;4.30;;;1.85;;
18883;SDS011;9574;47.282;9.640;2023-07-13T06:36:26;3.97;;;2.05;;
18883;SDS011;9574;47.282;9.640;2023-07-13T06:38:53;6.50;;;2.20;;
18883;SDS011;9574;47.282;9.640;2023-07-13T06:41:20;4.50;;;1.90;;
18883;SDS011;9574;47.282;9.640;2023-07-13T06:43:47;3.15;;;1.90;;
18883;SDS011;9574;47.282;9.640;2023-07-13T06:46:16;2.38;;;2.00;;
18883;SDS011;9574;47.282;9.640;2023-07-13T06:48:43;2.50;;;1.77;;
18883;SDS011;9574;47.282;9.640;2023-07-13T06:51:09;2.83;;;2.30;;
18883;SDS011;9574;47.282;9.640;2023-07-13T06:53:37;3.55;;;2.35;;
18883;SDS011;9574;47.282;9.640;2023-07-13T06:56:04;3.30;;;2.03;;
18883;SDS011;9574;47.282;9.640;2023-07-13T06:58:34;3.35;;;2.70;;
18883;SDS011;9574;47.282;9.640;2023-07-13T07:01:01;3.30;;;2.25;;
18883;SDS011;9574;47.282;9.640;2023-07-13T07:03:29;5.72;;;2.33;;
18883;SDS011;9574;47.282;9.640;2023-07-13T07:05:59;3.72;;;2.22;;
18883;SDS011;9574;47.282;9.640;2023-07-13T07:08:27;7.85;;;3.15;;
18883;SDS011;9574;47.282;9.640;2023-07-13T07:10:54;3.10;;;2.40;;
18883;SDS011;9574;47.282;9.640;2023-07-13T07:13:21;3.70;;;2.20;;
18883;SDS011;9574;47.282;9.640;2023-07-13T07:15:48;6.05;;;2.35;;
18883;SDS011;9574;47.282;9.640;2023-07-13T07:18:16;3.15;;;2.47;;
18883;SDS011;9574;47.282;9.640;2023-07-13T07:20:44;4.10;;;2.88;;
18883;SDS011;9574;47.282;9.640;2023-07-13T07:23:11;2.85;;;2.55;;
18883;SDS011;9574;47.282;9.640;2023-07-13T07:25:39;3.42;;;2.28;;
18883;SDS011;9574;47.282;9.640;2023-07-13T07:28:07;3.80;;;2.75;;
18883;SDS011;9574;47.282;9.640;2023-07-13T07:30:34;4.03;;;2.65;;
18883;SDS011;9574;47.282;9.640;2023-07-13T07:33:01;3.00;;;2.42;;
18883;SDS011;9574;47.282;9.640;2023-07-13T07:35:28;3.70;;;2.35;;
18883;SDS011;9574;47.282;9.640;2023-07-13T07:37:56;3.72;;;2.40;;
18883;SDS011;9574;47.282;9.640;2023-07-13T07:40:23;3.13;;;2.30;;
18883;SDS011;9574;47.282;9.640;2023-07-13T07:42:51;3.13;;;2.30;;
18883;SDS011;9574;47.282;9.640;2023-07-13T07:45:18;5.50;;;3.25;;
18883;SDS011;9574;47.282;9.640;2023-07-13T07:47:46;5.20;;;2.55;;
18883;SDS011;9574;47.282;9.640;2023-07-13T07:50:13;3.80;;;2.40;;
18883;SDS011;9574;47.282;9.640;2023-07-13T07:52:40;3.50;;;2.40;;
18883;SDS011;9574;47.282;9.640;2023-07-13T07:55:09;4.30;;;2.55;;
18883;SDS011;9574;47.282;9.640;2023-07-13T07:57:36;4.80;;;2.35;;
18883;SDS011;9574;47.282;9.640;2023-07-13T08:00:03;3.65;;;2.65;;
18883;SDS011;9574;47.282;9.640;2023-07-13T08:02:31;3.67;;;2.60;;
18883;SDS011;9574;47.282;9.640;2023-07-13T08:04:58;4.93;;;2.65;;
18883;SDS011;9574;47.282;9.640;2023-07-13T08:07:25;3.67;;;2.17;;
18883;SDS011;9574;47.282;9.640;2023-07-13T08:09:52;3.55;;;2.20;;
18883;SDS011;9574;47.282;9.640;2023-07-13T08:12:21;3.38;;;2.15;;
18883;SDS011;9574;47.282;9.640;2023-07-13T08:14:49;5.68;;;2.40;;
18883;SDS011;9574;47.282;9.640;2023-07-13T08:17:18;3.08;;;2.05;;
18883;SDS011;9574;47.282;9.640;2023-07-13T08:19:45;5.85;;;3.08;;
18883;SDS011;9574;47.282;9.640;2023-07-13T08:22:12;3.80;;;2.45;;
18883;SDS011;9574;47.282;9.640;2023-07-13T08:24:40;5.00;;;2.63;;
18883;SDS011;9574;47.282;9.640;2023-07-13T08:27:07;3.20;;;2.33;;
18883;SDS011;9574;47.282;9.640;2023-07-13T08:29:37;8.48;;;3.03;;
18883;SDS011;9574;47.282;9.640;2023-07-13T08:32:04;6.13;;;2.58;;
18883;SDS011;9574;47.282;9.640;2023-07-13T08:34:34;2.33;;;1.90;;
18883;SDS011;9574;47.282;9.640;2023-07-13T08:37:01;3.40;;;2.13;;
18883;SDS011;9574;47.282;9.640;2023-07-13T08:39:29;3.15;;;2.30;;
18883;SDS011;9574;47.282;9.640;2023-07-13T08:41:58;3.92;;;2.20;;
18883;SDS011;9574;47.282;9.640;2023-07-13T08:44:31;3.55;;;1.73;;
18883;SDS011;9574;47.282;9.640;2023-07-13T08:47:11;1.67;;;1.50;;
18883;SDS011;9574;47.282;9.640;2023-07-13T08:49:42;2.88;;;1.52;;
18883;SDS011;9574;47.282;9.640;2023-07-13T08:52:11;4.70;;;1.80;;
18883;SDS011;9574;47.282;9.640;2023-07-13T08:54:44;1.92;;;1.58;;
18883;SDS011;9574;47.282;9.640;2023-07-13T08:57:17;3.45;;;1.90;;
18883;SDS011;9574;47.282;9.640;2023-07-13T08:59:49;2.85;;;1.75;;
18883;SDS011;9574;47.282;9.640;2023-07-13T09:02:22;2.53;;;1.73;;
18883;SDS011;9574;47.282;9.640;2023-07-13T09:04:53;2.28;;;1.52;;
18883;SDS011;9574;47.282;9.640;2023-07-13T09:07:30;3.67;;;1.95;;
18883;SDS011;9574;47.282;9.640;2023-07-13T09:10:13;4.15;;;2.00;;
18883;SDS011;9574;47.282;9.640;2023-07-13T09:12:45;3.08;;;2.30;;
18883;SDS011;9574;47.282;9.640;2023-07-13T09:15:24;5.25;;;2.80;;
18883;SDS011;9574;47.282;9.640;2023-07-13T09:17:57;4.28;;;2.53;;
18883;SDS011;9574;47.282;9.640;2023-07-13T09:20:29;3.72;;;2.17;;
18883;SDS011;9574;47.282;9.640;2023-07-13T09:22:58;2.55;;;2.08;;
18883;SDS011;9574;47.282;9.640;2023-07-13T09:25:30;2.95;;;1.80;;
18883;SDS011;9574;47.282;9.640;2023-07-13T09:28:03;2.50;;;1.95;;
18883;SDS011;9574;47.282;9.640;2023-07-13T09:30:46;2.90;;;2.10;;
18883;SDS011;9574;47.282;9.640;2023-07-13T09:33:24;3.97;;;2.25;;
18883;SDS011;9574;47.282;9.640;2023-07-13T09:35:54;2.58;;;1.80;;
18883;SDS011;9574;47.282;9.640;2023-07-13T09:38:22;5.20;;;2.20;;
18883;SDS011;9574;47.282;9.640;2023-07-13T09:41:04;2.85;;;1.92;;
18883;SDS011;9574;47.282;9.640;2023-07-13T09:44:00;2.53;;;1.80;;
18883;SDS011;9574;47.282;9.640;2023-07-13T09:46:29;2.42;;;1.98;;
18883;SDS011;9574;47.282;9.640;2023-07-13T09:48:58;4.13;;;2.05;;
18883;SDS011;9574;47.282;9.640;2023-07-13T09:51:25;2.85;;;2.33;;
18883;SDS011;9574;47.282;9.640;2023-07-13T09:53:53;3.35;;;2.00;;
18883;SDS011;9574;47.282;9.640;2023-07-13T09:56:20;2.25;;;1.77;;
18883;SDS011;9574;47.282;9.640;2023-07-13T09:58:49;1.75;;;1.35;;
18883;SDS011;9574;47.282;9.640;2023-07-13T10:01:17;2.38;;;1.40;;
18883;SDS011;9574;47.282;9.640;2023-07-13T10:04:00;1.60;;;1.50;;
18883;SDS011;9574;47.282;9.640;2023-07-13T10:06:27;2.40;;;1.77;;
18883;SDS011;9574;47.282;9.640;2023-07-13T10:08:55;1.70;;;1.40;;
18883;SDS011;9574;47.282;9.640;2023-07-13T10:11:23;2.75;;;1.88;;
18883;SDS011;9574;47.282;9.640;2023-07-13T10:13:54;3.47;;;1.60;;
18883;SDS011;9574;47.282;9.640;2023-07-13T10:16:23;2.58;;;2.05;;
18883;SDS011;9574;47.282;9.640;2023-07-13T10:18:55;2.70;;;1.70;;
18883;SDS011;9574;47.282;9.640;2023-07-13T10:21:27;2.60;;;2.10;;
18883;SDS011;9574;47.282;9.640;2023-07-13T10:23:58;2.38;;;2.17;;
18883;SDS011;9574;47.282;9.640;2023-07-13T10:26:33;3.03;;;2.15;;
18883;SDS011;9574;47.282;9.640;2023-07-13T10:29:02;6.00;;;2.45;;
18883;SDS011;9574;47.282;9.640;2023-07-13T10:31:38;3.75;;;2.40;;
18883;SDS011;9574;47.282;9.640;2023-07-13T10:34:09;3.28;;;2.60;;
18883;SDS011;9574;47.282;9.640;2023-07-13T10:36:39;3.97;;;2.60;;
18883;SDS011;9574;47.282;9.640;2023-07-13T10:39:09;2.25;;;2.00;;
18883;SDS011;9574;47.282;9.640;2023-07-13T10:41:41;5.25;;;2.45;;
18883;SDS011;9574;47.282;9.640;2023-07-13T10:44:12;3.78;;;2.42;;
18883;SDS011;9574;47.282;9.640;2023-07-13T10:46:46;4.15;;;2.58;;
18883;SDS011;9574;47.282;9.640;2023-07-13T10:49:16;5.03;;;2.78;;
18883;SDS011;9574;47.282;9.640;2023-07-13T10:51:49;4.18;;;2.78;;
18883;SDS011;9574;47.282;9.640;2023-07-13T10:54:19;3.42;;;2.50;;
18883;SDS011;9574;47.282;9.640;2023-07-13T10:56:49;3.40;;;2.85;;
18883;SDS011;9574;47.282;9.640;2023-07-13T10:59:23;6.00;;;2.90;;
18883;SDS011;9574;47.282;9.640;2023-07-13T11:01:55;5.20;;;2.85;;
18883;SDS011;9574;47.282;9.640;2023-07-13T11:04:25;4.20;;;2.88;;
18883;SDS011;9574;47.282;9.640;2023-07-13T11:06:56;5.43;;;3.08;;
18883;SDS011;9574;47.282;9.640;2023-07-13T11:09:33;4.03;;;2.80;;
18883;SDS011;9574;47.282;9.640;2023-07-13T11:12:09;4.80;;;3.00;;
18883;SDS011;9574;47.282;9.640;2023-07-13T11:15:01;7.82;;;2.47;;
18883;SDS011;9574;47.282;9.640;2023-07-13T11:17:38;4.13;;;2.90;;
18883;SDS011;9574;47.282;9.640;2023-07-13T11:23:08;5.15;;;2.63;;
18883;SDS011;9574;47.282;9.640;2023-07-13T11:26:01;2.78;;;2.42;;
18883;SDS011;9574;47.282;9.640;2023-07-13T11:28:30;4.50;;;2.60;;
18883;SDS011;9574;47.282;9.640;2023-07-13T11:31:02;4.63;;;2.40;;
18883;SDS011;9574;47.282;9.640;2023-07-13T11:33:58;4.18;;;3.08;;
18883;SDS011;9574;47.282;9.640;2023-07-13T11:36:32;4.70;;;2.80;;
18883;SDS011;9574;47.282;9.640;2023-07-13T11:39:05;5.60;;;2.67;;
18883;SDS011;9574;47.282;9.640;2023-07-13T11:42:00;4.50;;;2.97;;
18883;SDS011;9574;47.282;9.640;2023-07-13T11:44:30;5.32;;;2.17;;
18883;SDS011;9574;47.282;9.640;2023-07-13T11:47:07;3.70;;;2.42;;
18883;SDS011;9574;47.282;9.640;2023-07-13T11:49:41;3.40;;;2.15;;
18883;SDS011;9574;47.282;9.640;2023-07-13T11:52:12;3.38;;;2.20;;
18883;SDS011;9574;47.282;9.640;2023-07-13T11:54:47;3.22;;;2.88;;
18883;SDS011;9574;47.282;9.640;2023-07-13T11:57:22;4.35;;;2.58;;
18883;SDS011;9574;47.282;9.640;2023-07-13T11:59:52;4.80;;;2.47;;
18883;SDS011;9574;47.282;9.640;2023-07-13T12:02:23;3.58;;;2.65;;
18883;SDS011;9574;47.282;9.640;2023-07-13T12:04:55;5.38;;;2.22;;
18883;SDS011;9574;47.282;9.640;2023-07-13T12:07:23;4.15;;;2.67;;
18883;SDS011;9574;47.282;9.640;2023-07-13T12:09:51;4.30;;;2.75;;
18883;SDS011;9574;47.282;9.640;2023-07-13T12:12:18;2.78;;;1.88;;
18883;SDS011;9574;47.282;9.640;2023-07-13T12:14:50;2.95;;;2.20;;
18883;SDS011;9574;47.282;9.640;2023-07-13T12:17:18;5.22;;;1.70;;
18883;SDS011;9574;47.282;9.640;2023-07-13T12:19:47;2.70;;;1.65;;
18883;SDS011;9574;47.282;9.640;2023-07-13T12:22:14;1.90;;;1.58;;
18883;SDS011;9574;47.282;9.640;2023-07-13T12:24:45;2.65;;;1.45;;
18883;SDS011;9574;47.282;9.640;2023-07-13T12:27:16;2.05;;;1.48;;
18883;SDS011;9574;47.282;9.640;2023-07-13T12:29:50;3.00;;;1.48;;
18883;SDS011;9574;47.282;9.640;2023-07-13T12:32:20;2.22;;;1.60;;
18883;SDS011;9574;47.282;9.640;2023-07-13T12:34:51;3.17;;;1.58;;
18883;SDS011;9574;47.282;9.640;2023-07-13T12:37:19;1.60;;;1.50;;
18883;SDS011;9574;47.282;9.640;2023-07-13T12:39:51;2.58;;;1.40;;
18883;SDS011;9574;47.282;9.640;2023-07-13T12:42:20;2.78;;;1.27;;
18883;SDS011;9574;47.282;9.640;2023-07-13T12:44:52;4.95;;;1.55;;
18883;SDS011;9574;47.282;9.640;2023-07-13T12:47:20;2.75;;;1.70;;
18883;SDS011;9574;47.282;9.640;2023-07-13T12:49:48;2.08;;;1.45;;
18883;SDS011;9574;47.282;9.640;2023-07-13T12:52:17;2.42;;;1.77;;
18883;SDS011;9574;47.282;9.640;2023-07-13T12:54:55;3.75;;;1.52;;
18883;SDS011;9574;47.282;9.640;2023-07-13T12:57:23;2.60;;;1.45;;
18883;SDS011;9574;47.282;9.640;2023-07-13T12:59:52;2.05;;;1.60;;
18883;SDS011;9574;47.282;9.640;2023-07-13T13:02:29;2.30;;;1.75;;
18883;SDS011;9574;47.282;9.640;2023-07-13T13:04:58;3.00;;;2.30;;
18883;SDS011;9574;47.282;9.640;2023-07-13T13:07:25;1.83;;;1.70;;
18883;SDS011;9574;47.282;9.640;2023-07-13T13:09:52;3.13;;;2.20;;
18883;SDS011;9574;47.282;9.640;2023-07-13T13:12:21;6.55;;;2.67;;
18883;SDS011;9574;47.282;9.640;2023-07-13T13:14:51;3.53;;;2.20;;
18883;SDS011;9574;47.282;9.640;2023-07-13T13:17:19;2.75;;;2.22;;
18883;SDS011;9574;47.282;9.640;2023-07-13T13:19:49;3.13;;;2.17;;
18883;SDS011;9574;47.282;9.640;2023-07-13T13:22:18;4.45;;;2.40;;
18883;SDS011;9574;47.282;9.640;2023-07-13T13:24:45;4.53;;;1.88;;
18883;SDS011;9574;47.282;9.640;2023-07-13T13:27:16;3.15;;;1.92;;
18883;SDS011;9574;47.282;9.640;2023-07-13T13:29:44;3.33;;;2.13;;
18883;SDS011;9574;47.282;9.640;2023-07-13T13:32:12;2.78;;;2.08;;
18883;SDS011;9574;47.282;9.640;2023-07-13T13:34:40;2.22;;;1.65;;
18883;SDS011;9574;47.282;9.640;2023-07-13T13:37:15;2.90;;;1.80;;
18883;SDS011;9574;47.282;9.640;2023-07-13T13:39:45;2.00;;;1.35;;
18883;SDS011;9574;47.282;9.640;2023-07-13T13:42:13;3.00;;;1.45;;
18883;SDS011;9574;47.282;9.640;2023-07-13T13:44:41;3.20;;;1.63;;
18883;SDS011;9574;47.282;9.640;2023-07-13T13:47:15;1.42;;;1.33;;
18883;SDS011;9574;47.282;9.640;2023-07-13T13:49:54;2.08;;;1.67;;
18883;SDS011;9574;47.282;9.640;2023-07-13T13:52:21;4.85;;;1.88;;
18883;SDS011;9574;47.282;9.640;2023-07-13T13:54:48;2.10;;;1.63;;
18883;SDS011;9574;47.282;9.640;2023-07-13T13:57:15;1.95;;;1.48;;
18883;SDS011;9574;47.282;9.640;2023-07-13T13:59:43;1.73;;;1.50;;
18883;SDS011;9574;47.282;9.640;2023-07-13T14:02:16;1.92;;;1.15;;
18883;SDS011;9574;47.282;9.640;2023-07-13T14:04:50;1.88;;;1.50;;
18883;SDS011;9574;47.282;9.640;2023-07-13T14:07:20;2.03;;;1.40;;
18883;SDS011;9574;47.282;9.640;2023-07-13T14:09:46;1.73;;;1.52;;
18883;SDS011;9574;47.282;9.640;2023-07-13T14:12:13;1.95;;;1.20;;
18883;SDS011;9574;47.282;9.640;2023-07-13T14:14:40;2.50;;;1.52;;
18883;SDS011;9574;47.282;9.640;2023-07-13T14:17:12;2.30;;;1.80;;
18883;SDS011;9574;47.282;9.640;2023-07-13T14:19:47;3.95;;;1.63;;
18883;SDS011;9574;47.282;9.640;2023-07-13T14:22:16;4.00;;;1.98;;
18883;SDS011;9574;47.282;9.640;2023-07-13T14:24:43;2.85;;;1.70;;
18883;SDS011;9574;47.282;9.640;2023-07-13T14:27:10;3.33;;;2.00;;
18883;SDS011;9574;47.282;9.640;2023-07-13T14:29:38;3.40;;;2.53;;
18883;SDS011;9574;47.282;9.640;2023-07-13T14:32:08;2.83;;;2.00;;
18883;SDS011;9574;47.282;9.640;2023-07-13T14:34:38;2.40;;;1.90;;
18883;SDS011;9574;47.282;9.640;2023-07-13T14:37:08;3.25;;;1.80;;
18883;SDS011;9574;47.282;9.640;2023-07-13T14:39:39;2.40;;;1.70;;
18883;SDS011;9574;47.282;9.640;2023-07-13T14:42:08;2.75;;;1.90;;
18883;SDS011;9574;47.282;9.640;2023-07-13T14:44:37;2.30;;;1.65;;
18883;SDS011;9574;47.282;9.640;2023-07-13T14:47:05;2.08;;;1.88;;
18883;SDS011;9574;47.282;9.640;2023-07-13T14:49:34;3.50;;;1.83;;
18883;SDS011;9574;47.282;9.640;2023-07-13T14:52:08;2.70;;;2.10;;
18883;SDS011;9574;47.282;9.640;2023-07-13T14:54:38;3.45;;;2.25;;
18883;SDS011;9574;47.282;9.640;2023-07-13T14:57:08;2.22;;;1.70;;
18883;SDS011;9574;47.282;9.640;2023-07-13T14:59:36;2.33;;;1.80;;
18883;SDS011;9574;47.282;9.640;2023-07-13T15:02:09;1.83;;;1.60;;
18883;SDS011;9574;47.282;9.640;2023-07-13T15:04:44;1.77;;;1.40;;
18883;SDS011;9574;47.282;9.640;2023-07-13T15:07:12;3.13;;;1.95;;
18883;SDS011;9574;47.282;9.640;2023-07-13T15:09:40;2.00;;;1.55;;
18883;SDS011;9574;47.282;9.640;2023-07-13T15:12:08;2.75;;;1.60;;
18883;SDS011;9574;47.282;9.640;2023-07-13T15:14:35;1.58;;;1.40;;
18883;SDS011;9574;47.282;9.640;2023-07-13T15:17:02;3.10;;;1.65;;